Time;durP1;ratioP1;P1;durP2;ratioP2;P2;SDS_P1;SDS_P2;PMS_P1;PMS_P2;Temp;Humidity;BMP_temperature;BMP_pressure;BME280_temperature;BME280_humidity;BME280_pressure;Samples;Min_cycle;Max_cycle;Signal;HPM_P1;HPM_P2
2023/06/17 00:01:38;;;;;;;9.00;4.90;;;;;;;17.08;55.24;101583.13;4999829;28;20121;-51
2023/06/17 00:04:04;;;;;;;12.45;5.55;;;;;;;16.99;55.56;101582.97;5004491;28;20281;-53
2023/06/17 00:06:29;;;;;;;12.57;5.30;;;;;;;16.96;55.89;101587.78;5001529;28;20527;-52
2023/06/17 00:08:54;;;;;;;10.82;5.63;;;;;;;16.93;55.84;101586.22;5005185;28;20074;-54
2023/06/17 00:11:20;;;;;;;10.50;5.87;;;;;;;16.83;56.35;101586.19;4996396;28;20038;-50
2023/06/17 00:13:46;;;;;;;12.30;5.40;;;;;;;16.80;56.29;101578.44;5002384;28;20289;-51
2023/06/17 00:16:12;;;;;;;15.00;5.57;;;;;;;16.69;56.53;101581.25;5003515;28;20030;-51
2023/06/17 00:18:39;;;;;;;19.58;5.50;;;;;;;16.60;56.88;101574.88;5003443;28;20022;-50
2023/06/17 00:21:04;;;;;;;13.80;6.00;;;;;;;16.51;57.36;101578.38;5000895;28;20073;-50
2023/06/17 00:23:30;;;;;;;13.75;5.40;;;;;;;16.50;57.25;101574.00;5005271;28;20030;-53
2023/06/17 00:25:56;;;;;;;10.73;5.07;;;;;;;16.42;57.75;101569.34;5001464;28;20461;-51
2023/06/17 00:28:21;;;;;;;10.98;5.57;;;;;;;16.41;58.15;101566.81;5001300;28;20120;-51
2023/06/17 00:30:47;;;;;;;11.67;5.67;;;;;;;16.43;58.01;101559.47;5002678;28;20384;-52
2023/06/17 00:33:13;;;;;;;6.75;4.90;;;;;;;16.42;58.12;101564.00;5001982;28;20289;-51
2023/06/17 00:35:38;;;;;;;18.48;5.80;;;;;;;16.26;58.36;101556.47;5003691;28;20033;-54
2023/06/17 00:38:03;;;;;;;9.65;5.10;;;;;;;16.22;58.71;101563.09;5001034;28;20023;-50
2023/06/17 00:40:29;;;;;;;11.33;5.43;;;;;;;16.22;58.26;101559.53;5002411;28;20026;-50
2023/06/17 00:42:54;;;;;;;7.20;5.13;;;;;;;16.16;58.67;101562.78;5003548;28;20364;-54
2023/06/17 00:45:20;;;;;;;6.85;5.28;;;;;;;16.14;59.19;101570.97;5002707;28;20184;-52
2023/06/17 00:47:46;;;;;;;8.38;4.95;;;;;;;16.04;59.91;101567.41;5000887;28;20050;-53
2023/06/17 00:50:14;;;;;;;5.60;4.90;;;;;;;16.01;60.11;101567.69;5004348;28;20026;-53
2023/06/17 00:52:42;;;;;;;8.02;4.75;;;;;;;16.02;60.24;101564.88;4995329;28;20533;-54
2023/06/17 00:55:08;;;;;;;6.10;4.82;;;;;;;15.89;60.80;101567.78;5001908;28;20445;-52
2023/06/17 00:57:35;;;;;;;6.40;5.03;;;;;;;15.93;60.59;101562.97;5002022;28;20026;-53
2023/06/17 01:00:00;;;;;;;10.52;4.63;;;;;;;15.89;60.64;101564.25;5001694;28;20129;-53
2023/06/17 01:02:26;;;;;;;8.30;4.63;;;;;;;15.84;60.43;101569.16;5004083;28;20542;-51
2023/06/17 01:04:53;;;;;;;6.90;4.68;;;;;;;15.79;59.80;101564.19;5000001;28;20479;-51
2023/06/17 01:07:57;;;;;;;8.70;4.55;;;;;;;15.80;60.72;101560.53;5003957;28;20045;-52
2023/06/17 01:10:35;;;;;;;7.82;4.80;;;;;;;15.82;59.46;101568.44;4963442;28;20202;-54
2023/06/17 01:13:03;;;;;;;7.22;5.10;;;;;;;15.79;60.51;101560.69;4965114;28;20043;-51
2023/06/17 01:15:30;;;;;;;9.43;4.68;;;;;;;15.75;61.32;101564.56;4989564;28;20484;-54
2023/06/17 01:17:56;;;;;;;6.90;4.70;;;;;;;15.71;61.34;101550.59;5006328;28;20065;-51
2023/06/17 01:20:22;;;;;;;6.82;5.22;;;;;;;15.67;60.86;101558.06;5002094;28;20498;-51
2023/06/17 01:22:52;;;;;;;9.55;5.18;;;;;;;15.65;61.49;101557.31;5008072;28;20037;-52
2023/06/17 01:25:18;;;;;;;;;;;;;;;15.80;57.58;101562.38;5000638;28;20109;-53
2023/06/17 01:27:43;;;;;;;9.35;5.50;;;;;;;15.62;61.12;101562.09;5005357;28;19997;-50
2023/06/17 01:30:09;;;;;;;7.37;5.03;;;;;;;15.49;61.92;101563.16;5006629;28;20030;-52
2023/06/17 01:32:34;;;;;;;6.57;5.82;;;;;;;15.46;61.68;101557.25;5005801;28;20838;-51
2023/06/17 01:35:05;;;;;;;6.85;5.65;;;;;;;15.31;62.25;101557.56;5005075;28;20026;-51
2023/06/17 01:37:55;;;;;;;12.50;5.95;;;;;;;15.41;60.75;101551.44;5007431;28;20030;-53
2023/06/17 01:40:23;;;;;;;10.50;5.88;;;;;;;15.24;62.61;101548.38;5004103;28;20048;-52
2023/06/17 01:42:51;;;;;;;8.48;5.50;;;;;;;15.20;62.98;101549.59;5003384;28;20102;-53
2023/06/17 01:45:18;;;;;;;12.60;6.18;;;;;;;15.16;62.35;101550.84;5004978;28;20491;-51
2023/06/17 01:47:43;;;;;;;6.80;5.63;;;;;;;15.22;62.56;101554.81;5006233;28;20434;-50
2023/06/17 01:50:09;;;;;;;12.95;5.97;;;;;;;15.22;61.85;101549.47;5019176;28;20030;-50
2023/06/17 01:52:34;;;;;;;7.60;6.15;;;;;;;15.17;62.37;101558.75;5006209;28;20034;-52
2023/06/17 01:55:00;;;;;;;9.55;6.03;;;;;;;15.18;62.37;101554.22;5004889;28;20027;-54
2023/06/17 01:57:26;;;;;;;11.50;6.10;;;;;;;15.11;62.16;101539.69;5003513;28;20026;-51
2023/06/17 01:59:53;;;;;;;9.00;6.00;;;;;;;15.09;62.68;101550.53;5004020;28;20122;-53
2023/06/17 02:02:18;;;;;;;10.45;5.95;;;;;;;15.02;63.06;101552.03;5005733;28;20479;-51
2023/06/17 02:04:44;;;;;;;11.98;6.60;;;;;;;14.98;63.43;101548.72;5004756;28;20083;-50
2023/06/17 02:07:10;;;;;;;9.60;6.38;;;;;;;14.91;64.16;101549.41;5005151;28;20022;-51
2023/06/17 02:09:36;;;;;;;8.65;6.05;;;;;;;14.92;63.85;101551.94;5005545;28;20503;-51
2023/06/17 02:12:02;;;;;;;8.27;5.22;;;;;;;14.91;63.49;101546.72;5004611;28;20030;-51
2023/06/17 02:14:29;;;;;;;9.18;6.53;;;;;;;14.89;63.86;101551.31;5004442;28;20537;-51
2023/06/17 02:16:55;;;;;;;7.20;5.45;;;;;;;14.85;64.17;101550.75;5007163;28;20022;-52
2023/06/17 02:19:22;;;;;;;9.35;5.90;;;;;;;14.77;64.39;101546.06;4999270;28;20026;-51
2023/06/17 02:21:48;;;;;;;7.40;5.25;;;;;;;14.76;64.61;101540.81;5010855;28;20033;-51
2023/06/17 02:24:14;;;;;;;8.35;6.00;;;;;;;14.76;64.41;101548.84;5004896;28;20391;-52
2023/06/17 02:26:41;;;;;;;12.35;6.35;;;;;;;14.74;64.26;101537.44;5005296;28;20421;-51
2023/06/17 02:29:07;;;;;;;7.80;6.35;;;;;;;14.66;65.01;101537.22;5004399;28;20502;-51
2023/06/17 02:31:32;;;;;;;12.70;6.72;;;;;;;14.67;64.81;101538.91;5005312;28;20049;-50
2023/06/17 02:33:58;;;;;;;9.30;6.32;;;;;;;14.65;64.56;101531.00;5003431;28;20180;-52
2023/06/17 02:36:24;;;;;;;13.73;6.35;;;;;;;14.57;65.43;101530.75;5005961;28;20034;-51
2023/06/17 02:38:52;;;;;;;11.75;6.50;;;;;;;14.53;65.06;101537.34;5003601;28;20022;-54
2023/06/17 02:41:18;;;;;;;11.20;6.63;;;;;;;14.49;65.22;101531.41;5005648;28;20033;-53
2023/06/17 02:43:43;;;;;;;11.77;6.53;;;;;;;14.49;65.66;101525.19;5004876;28;20026;-55
2023/06/17 02:46:08;;;;;;;15.48;6.05;;;;;;;14.44;65.65;101529.09;5005429;28;20081;-54
2023/06/17 02:48:33;;;;;;;13.90;6.60;;;;;;;14.39;65.67;101525.97;5007258;28;20106;-51
2023/06/17 02:50:59;;;;;;;12.10;6.77;;;;;;;14.36;66.29;101526.22;5003244;28;20030;-54
2023/06/17 02:53:25;;;;;;;9.52;6.13;;;;;;;14.38;65.89;101526.09;5003243;28;20285;-52
2023/06/17 02:55:50;;;;;;;13.43;6.63;;;;;;;14.28;66.39;101525.16;5006375;28;20029;-55
2023/06/17 02:58:18;;;;;;;18.88;6.13;;;;;;;14.28;66.39;101530.50;5003233;28;20053;-51
2023/06/17 03:00:45;;;;;;;10.03;5.80;;;;;;;14.28;66.35;101526.00;5006108;28;20480;-52
2023/06/17 03:03:10;;;;;;;13.23;6.50;;;;;;;14.22;66.45;101521.13;5004893;28;20039;-50
2023/06/17 03:05:37;;;;;;;10.73;6.07;;;;;;;14.19;67.16;101524.09;4999116;28;20026;-52
2023/06/17 03:08:03;;;;;;;12.57;6.70;;;;;;;14.20;66.86;101521.25;5005550;28;20033;-54
2023/06/17 03:10:28;;;;;;;9.73;6.38;;;;;;;14.19;67.05;101521.41;5003071;28;20058;-52
2023/06/17 03:12:54;;;;;;;8.23;6.55;;;;;;;14.19;67.28;101524.09;5003571;28;20394;-51
2023/06/17 03:15:19;;;;;;;11.02;6.55;;;;;;;14.12;67.57;101518.38;5005591;28;20022;-52
2023/06/17 03:17:45;;;;;;;10.18;6.32;;;;;;;14.07;67.85;101517.88;4984364;28;20062;-52
2023/06/17 03:20:11;;;;;;;11.43;6.60;;;;;;;14.07;68.06;101517.88;5004875;28;20037;-53
2023/06/17 03:22:36;;;;;;;6.75;6.07;;;;;;;14.07;68.37;101516.09;5003903;28;20026;-50
2023/06/17 03:25:02;;;;;;;11.18;6.78;;;;;;;14.05;67.83;101519.84;5002147;28;20054;-51
2023/06/17 03:27:28;;;;;;;10.25;7.18;;;;;;;14.01;68.19;101518.41;5003267;28;20030;-54
2023/06/17 03:29:53;;;;;;;11.82;6.90;;;;;;;13.98;68.16;101515.97;5005323;28;20100;-52
2023/06/17 03:32:18;;;;;;;12.80;6.78;;;;;;;13.98;68.28;101515.97;5001731;28;20050;-51
2023/06/17 03:34:44;;;;;;;10.50;7.45;;;;;;;13.98;68.08;101508.81;5001819;28;20061;-54
2023/06/17 03:37:10;;;;;;;11.55;6.93;;;;;;;13.98;67.88;101518.66;5005173;28;20022;-50
2023/06/17 03:39:36;;;;;;;15.23;7.38;;;;;;;13.93;68.42;101520.84;5001961;28;20022;-54
2023/06/17 03:42:01;;;;;;;11.98;6.95;;;;;;;13.94;68.57;101512.72;5000761;28;20046;-51
2023/06/17 03:44:26;;;;;;;14.77;7.13;;;;;;;13.88;68.66;101521.19;5003523;28;20047;-53
2023/06/17 03:46:52;;;;;;;13.05;6.97;;;;;;;13.83;69.91;101508.22;5002898;28;20372;-54
2023/06/17 03:49:17;;;;;;;10.00;6.68;;;;;;;13.81;69.97;101515.50;5002838;28;20116;-50
2023/06/17 03:51:42;;;;;;;11.73;7.03;;;;;;;13.84;69.78;101509.06;5005093;28;20021;-53
2023/06/17 03:54:07;;;;;;;9.37;6.53;;;;;;;13.83;69.47;101512.72;5002078;28;20057;-52
2023/06/17 03:56:33;;;;;;;17.25;6.75;;;;;;;13.85;69.76;101506.25;5003079;28;20335;-52
2023/06/17 03:58:58;;;;;;;15.63;7.03;;;;;;;13.88;69.70;101507.84;5002048;28;20092;-51
2023/06/17 04:01:23;;;;;;;9.23;6.87;;;;;;;13.88;69.49;101498.00;5000513;28;20033;-53
2023/06/17 04:03:48;;;;;;;15.13;6.57;;;;;;;13.91;70.13;101506.75;5001099;28;20358;-52
2023/06/17 04:06:14;;;;;;;15.15;7.50;;;;;;;13.88;70.65;101503.34;4986529;28;20281;-52
2023/06/17 04:08:41;;;;;;;19.88;7.70;;;;;;;13.95;70.10;101508.19;5002887;28;20105;-51
2023/06/17 04:11:06;;;;;;;16.85;7.68;;;;;;;13.95;70.57;101503.69;5003733;28;20080;-53
2023/06/17 04:13:32;;;;;;;12.52;7.72;;;;;;;13.99;69.90;101505.16;5001928;28;20415;-50
2023/06/17 04:15:57;;;;;;;13.65;7.40;;;;;;;14.01;70.73;101500.53;5001329;28;20018;-55
2023/06/17 04:18:22;;;;;;;16.35;8.52;;;;;;;14.00;70.86;101509.50;4997987;28;20118;-51
2023/06/17 04:20:49;;;;;;;17.88;7.95;;;;;;;14.06;70.79;101503.69;5004517;28;20022;-53
2023/06/17 04:23:14;;;;;;;12.88;7.80;;;;;;;14.09;70.44;101509.75;5002416;28;20495;-55
2023/06/17 04:25:40;;;;;;;15.38;8.77;;;;;;;14.12;70.41;101510.38;5001773;28;20235;-53
2023/06/17 04:28:07;;;;;;;11.13;7.90;;;;;;;14.17;70.31;101518.00;5002910;28;20026;-52
2023/06/17 04:30:33;;;;;;;15.73;8.77;;;;;;;14.19;70.57;101522.25;5001884;28;20124;-52
2023/06/17 04:32:59;;;;;;;16.10;8.13;;;;;;;14.21;69.93;101514.97;5001631;28;20026;-53
2023/06/17 04:35:25;;;;;;;16.77;8.45;;;;;;;14.24;69.91;101517.38;5004368;28;20483;-53
2023/06/17 04:37:53;;;;;;;14.13;8.93;;;;;;;14.24;71.05;101512.03;4998181;28;20054;-50
2023/06/17 04:40:20;;;;;;;12.60;8.43;;;;;;;14.29;69.99;101505.44;5003435;28;20037;-50
2023/06/17 04:42:47;;;;;;;10.80;8.63;;;;;;;14.41;70.35;101510.66;5014150;28;20027;-50
2023/06/17 04:45:12;;;;;;;13.48;8.30;;;;;;;14.49;70.44;101511.84;5002278;28;20034;-51
2023/06/17 04:47:38;;;;;;;10.68;8.60;;;;;;;14.55;69.96;101512.16;5003099;28;20026;-51
2023/06/17 04:50:04;;;;;;;9.52;8.05;;;;;;;14.69;69.44;101515.56;5001648;28;20534;-53
2023/06/17 04:52:31;;;;;;;11.55;9.05;;;;;;;14.78;70.25;101520.16;5002560;28;20048;-53
2023/06/17 04:54:56;;;;;;;12.90;8.80;;;;;;;14.92;69.31;101522.53;5001480;28;20042;-51
2023/06/17 04:57:21;;;;;;;13.02;8.85;;;;;;;14.95;69.74;101519.59;5003947;28;20093;-53
2023/06/17 04:59:46;;;;;;;13.13;8.93;;;;;;;15.11;69.22;101520.97;5002170;28;20033;-51
2023/06/17 05:02:13;;;;;;;16.08;8.80;;;;;;;15.18;69.72;101522.97;4994548;28;20024;-52
2023/06/17 05:04:38;;;;;;;13.25;9.02;;;;;;;15.40;68.55;101514.94;5002688;28;20087;-52
2023/06/17 05:07:04;;;;;;;12.88;9.00;;;;;;;15.57;67.98;101517.00;5000481;28;20027;-52
2023/06/17 05:09:29;;;;;;;10.82;9.27;;;;;;;15.71;67.77;101521.13;5001257;28;20033;-51
2023/06/17 05:11:54;;;;;;;10.52;9.15;;;;;;;15.85;67.27;101525.31;5000946;28;20023;-52
2023/06/17 05:14:20;;;;;;;13.40;9.77;;;;;;;15.93;67.83;101530.00;5004569;28;20368;-53
2023/06/17 05:16:45;;;;;;;13.93;8.93;;;;;;;16.10;67.41;101526.66;5002047;28;20105;-52
2023/06/17 05:19:10;;;;;;;14.10;8.95;;;;;;;16.25;66.38;101532.47;5000985;28;20038;-51
2023/06/17 05:21:35;;;;;;;12.45;9.60;;;;;;;16.34;67.01;101536.19;5001855;28;20463;-50
2023/06/17 05:24:01;;;;;;;16.00;10.13;;;;;;;16.41;67.41;101534.63;5002781;28;20430;-54
2023/06/17 05:26:27;;;;;;;11.90;10.32;;;;;;;16.58;66.91;101530.41;5001829;28;20018;-51
2023/06/17 05:28:52;;;;;;;15.55;9.77;;;;;;;16.71;67.58;101528.28;5003350;28;20037;-51
2023/06/17 05:31:18;;;;;;;17.70;11.02;;;;;;;16.85;67.40;101526.22;5001071;28;20074;-50
2023/06/17 05:33:43;;;;;;;12.15;10.98;;;;;;;17.11;66.37;101526.47;5000705;28;20022;-50
2023/06/17 05:36:08;;;;;;;17.20;11.32;;;;;;;17.28;66.02;101524.88;4997691;28;20030;-50
2023/06/17 05:38:34;;;;;;;18.87;11.90;;;;;;;17.55;65.67;101524.94;5003096;28;20030;-50
2023/06/17 05:40:59;;;;;;;19.23;11.93;;;;;;;17.84;64.29;101523.16;5000873;28;20296;-52
2023/06/17 05:43:28;;;;;;;12.70;11.40;;;;;;;18.06;64.06;101519.25;4997880;28;20640;-51
2023/06/17 05:45:53;;;;;;;12.93;11.63;;;;;;;18.34;62.82;101525.44;5001850;28;20273;-52
2023/06/17 05:48:19;;;;;;;15.43;12.05;;;;;;;18.52;62.21;101519.19;5000995;28;20034;-51
2023/06/17 05:50:44;;;;;;;15.43;12.88;;;;;;;18.70;62.30;101525.44;5000906;28;20022;-51
2023/06/17 05:53:09;;;;;;;15.70;13.23;;;;;;;18.95;61.18;101521.16;5004037;28;20025;-51
2023/06/17 05:55:35;;;;;;;16.42;12.57;;;;;;;19.17;60.85;101519.81;5000951;28;20121;-51
2023/06/17 05:58:00;;;;;;;15.70;12.67;;;;;;;19.49;60.06;101520.16;5002243;28;20030;-54
2023/06/17 06:00:25;;;;;;;18.23;13.27;;;;;;;19.65;58.43;101522.09;5005402;28;20277;-50
2023/06/17 06:02:51;;;;;;;16.40;12.25;;;;;;;19.94;57.34;101517.19;5005239;28;20050;-50
2023/06/17 06:05:16;;;;;;;13.30;12.00;;;;;;;20.16;56.17;101509.53;5002743;28;20062;-53
2023/06/17 06:07:43;;;;;;;13.73;12.23;;;;;;;20.41;56.18;101515.81;5005407;28;20034;-51
2023/06/17 06:10:12;;;;;;;12.77;11.32;;;;;;;20.67;55.42;101518.41;5006576;28;20026;-51
2023/06/17 06:12:38;;;;;;;15.88;11.85;;;;;;;20.87;53.57;101515.41;5002122;28;20132;-50
2023/06/17 06:15:05;;;;;;;14.98;11.82;;;;;;;21.04;53.58;101521.63;5000669;28;20026;-50
2023/06/17 06:17:30;;;;;;;13.85;11.40;;;;;;;21.23;52.70;101515.00;5005091;28;20022;-52
2023/06/17 06:19:56;;;;;;;11.00;9.97;;;;;;;21.48;50.93;101513.13;5004821;28;20023;-52
2023/06/17 06:22:21;;;;;;;16.38;10.90;;;;;;;21.72;51.24;101517.63;5002694;28;20336;-53
2023/06/17 06:24:46;;;;;;;13.55;10.48;;;;;;;21.87;50.26;101515.03;5002644;28;20109;-53
2023/06/17 06:27:12;;;;;;;11.60;10.40;;;;;;;22.06;49.78;101513.75;4999994;28;20037;-50
2023/06/17 06:29:37;;;;;;;11.70;10.50;;;;;;;22.31;50.08;101510.94;5000910;28;20289;-49
2023/06/17 06:32:03;;;;;;;11.37;10.13;;;;;;;22.60;49.58;101507.53;5002568;28;20292;-49
2023/06/17 06:34:31;;;;;;;11.40;10.18;;;;;;;22.74;47.71;101508.59;5000209;28;20719;-50
2023/06/17 06:36:56;;;;;;;13.83;9.77;;;;;;;22.99;46.75;101511.09;5001224;28;20030;-49
2023/06/17 06:39:22;;;;;;;11.15;10.00;;;;;;;23.25;45.51;101505.28;5001593;28;20472;-49
2023/06/17 06:41:47;;;;;;;10.77;9.68;;;;;;;23.52;45.73;101511.09;5000285;28;20034;-50
2023/06/17 06:44:12;;;;;;;14.55;9.38;;;;;;;23.67;44.89;101511.94;5002383;28;20053;-50
2023/06/17 06:46:38;;;;;;;10.17;9.17;;;;;;;23.87;44.04;101514.09;5000500;28;20025;-49
2023/06/17 06:49:03;;;;;;;12.67;9.30;;;;;;;24.07;43.83;101508.91;4996750;28;20307;-50
2023/06/17 06:51:28;;;;;;;11.37;8.80;;;;;;;24.36;42.86;101514.25;4999901;28;20269;-49
2023/06/17 06:53:53;;;;;;;14.13;9.23;;;;;;;24.41;41.37;101513.66;5000714;28;20289;-50
2023/06/17 06:56:19;;;;;;;13.40;9.57;;;;;;;24.63;39.25;101513.69;4996559;28;20782;-49
2023/06/17 06:58:46;;;;;;;11.13;10.00;;;;;;;24.80;38.92;101514.25;4999648;28;20285;-50
2023/06/17 07:01:13;;;;;;;10.75;9.48;;;;;;;25.01;37.31;101519.66;4999898;28;20031;-50
2023/06/17 07:03:39;;;;;;;14.23;8.55;;;;;;;25.17;36.50;101509.56;5000386;28;20022;-53
2023/06/17 07:06:05;;;;;;;13.13;9.40;;;;;;;25.37;37.84;101507.84;4999932;28;20041;-53
2023/06/17 07:08:31;;;;;;;11.63;9.70;;;;;;;25.63;36.44;101514.47;5004770;28;20375;-50
2023/06/17 07:10:57;;;;;;;12.52;8.98;;;;;;;25.79;38.00;101508.69;5004656;28;20026;-50
2023/06/17 07:13:23;;;;;;;14.23;9.93;;;;;;;26.04;36.94;101517.19;4996929;28;20037;-50
2023/06/17 07:15:49;;;;;;;11.63;9.77;;;;;;;26.37;35.94;101511.00;4997287;28;20034;-52
2023/06/17 07:18:15;;;;;;;10.52;9.50;;;;;;;26.47;35.86;101516.06;4998471;28;20119;-51
2023/06/17 07:20:40;;;;;;;12.45;9.80;;;;;;;26.62;33.98;101515.03;4999473;28;20015;-53
2023/06/17 07:23:06;;;;;;;11.82;9.45;;;;;;;26.83;34.87;101508.56;4999731;28;20026;-51
2023/06/17 07:25:32;;;;;;;11.90;9.82;;;;;;;27.03;34.40;101514.00;4992613;28;20034;-51
2023/06/17 07:27:59;;;;;;;12.32;9.45;;;;;;;27.10;33.09;101509.41;5001858;28;20022;-50
2023/06/17 07:30:25;;;;;;;13.27;9.50;;;;;;;27.38;33.61;101513.78;4994132;28;20077;-51
2023/06/17 07:32:50;;;;;;;16.25;9.25;;;;;;;27.55;32.96;101503.28;4998467;28;20025;-51
2023/06/17 07:35:16;;;;;;;12.45;8.88;;;;;;;27.80;32.77;101506.94;5001948;28;20057;-53
2023/06/17 07:37:41;;;;;;;9.38;8.43;;;;;;;27.90;32.94;101497.47;4998894;28;20057;-51
2023/06/17 07:40:07;;;;;;;12.50;9.20;;;;;;;28.10;31.47;101505.59;5002892;28;20050;-51
2023/06/17 07:42:32;;;;;;;11.68;8.50;;;;;;;28.28;30.90;101505.69;5002580;28;20281;-50
2023/06/17 07:44:57;;;;;;;10.20;9.20;;;;;;;28.46;30.63;101507.66;4997651;28;20496;-50
2023/06/17 07:47:23;;;;;;;13.07;8.63;;;;;;;28.57;30.28;101511.63;4996381;28;20277;-52
2023/06/17 07:49:49;;;;;;;10.30;7.80;;;;;;;28.75;28.92;101503.47;4997807;28;20813;-50
2023/06/17 07:52:14;;;;;;;12.07;9.15;;;;;;;28.98;28.79;101502.03;5001598;28;20543;-51
2023/06/17 07:54:41;;;;;;;11.15;7.60;;;;;;;29.25;29.89;101494.44;5001313;28;20108;-50
2023/06/17 07:57:06;;;;;;;12.05;9.15;;;;;;;29.30;29.72;101496.50;5001675;28;20030;-52
2023/06/17 07:59:31;;;;;;;11.45;9.20;;;;;;;29.36;28.55;101497.47;5004266;28;20029;-53
2023/06/17 08:01:57;;;;;;;8.65;7.70;;;;;;;29.68;27.60;101490.78;4998592;28;20076;-53
2023/06/17 08:04:22;;;;;;;12.70;8.73;;;;;;;29.90;28.76;101487.59;5003868;28;20029;-51
2023/06/17 08:06:47;;;;;;;12.67;7.80;;;;;;;30.30;27.01;101486.19;5001123;28;20304;-51
2023/06/17 08:09:13;;;;;;;8.27;7.40;;;;;;;30.09;27.30;101496.59;4992654;28;20030;-51
2023/06/17 08:11:38;;;;;;;8.40;7.70;;;;;;;30.24;25.84;101497.03;5003719;28;20276;-52
2023/06/17 08:14:03;;;;;;;9.23;8.03;;;;;;;30.21;26.22;101489.28;5001608;28;20030;-53
2023/06/17 08:16:28;;;;;;;8.30;7.50;;;;;;;30.53;26.09;101493.69;5000522;28;20105;-51
2023/06/17 08:18:54;;;;;;;10.67;8.10;;;;;;;30.51;26.24;101499.41;5001228;28;20813;-52
2023/06/17 08:21:19;;;;;;;7.97;6.63;;;;;;;30.76;26.84;101482.75;5003448;28;20034;-50
2023/06/17 08:23:45;;;;;;;6.75;6.07;;;;;;;31.11;26.06;101487.44;5002331;28;20289;-49
2023/06/17 08:26:11;;;;;;;8.70;7.80;;;;;;;31.02;24.82;101485.28;5001275;28;20121;-50
2023/06/17 08:28:36;;;;;;;10.48;6.80;;;;;;;31.30;24.62;101487.28;5002178;28;20073;-51
2023/06/17 08:31:02;;;;;;;7.43;6.20;;;;;;;31.49;24.70;101482.47;4997416;28;20073;-49
2023/06/17 08:33:29;;;;;;;7.10;6.23;;;;;;;31.72;24.04;101476.94;4991894;28;20069;-51
2023/06/17 08:35:54;;;;;;;7.53;5.40;;;;;;;31.68;24.33;101472.19;4995844;28;20033;-50
2023/06/17 08:38:19;;;;;;;6.70;4.53;;;;;;;31.68;21.90;101474.94;5001870;28;20052;-52
2023/06/17 08:40:47;;;;;;;4.68;4.10;;;;;;;31.87;21.45;101473.66;4997310;28;20105;-51
2023/06/17 08:43:17;;;;;;;5.40;3.88;;;;;;;31.98;21.80;101479.38;4998306;28;20037;-52
2023/06/17 08:45:46;;;;;;;5.53;4.35;;;;;;;32.17;20.34;101475.34;4997452;28;20036;-51
2023/06/17 08:48:11;;;;;;;4.97;3.40;;;;;;;32.74;23.03;101479.09;5002772;28;20089;-50
2023/06/17 08:50:38;;;;;;;4.75;3.17;;;;;;;32.73;20.37;101474.69;4996183;28;20030;-50
2023/06/17 08:53:04;;;;;;;5.60;3.83;;;;;;;32.88;19.74;101477.66;5000426;28;20472;-50
2023/06/17 08:55:30;;;;;;;3.90;3.50;;;;;;;32.82;20.00;101475.91;4997169;28;20030;-51
2023/06/17 08:57:55;;;;;;;5.18;4.10;;;;;;;33.01;20.13;101473.75;4999875;28;20065;-51
2023/06/17 09:00:21;;;;;;;9.63;4.10;;;;;;;33.16;20.65;101476.72;4999658;28;20034;-51
2023/06/17 09:02:46;;;;;;;12.47;4.20;;;;;;;33.14;19.72;101472.53;4999371;28;20032;-51
2023/06/17 09:05:12;;;;;;;6.85;3.95;;;;;;;33.23;20.78;101471.03;5000853;28;20388;-52
2023/06/17 09:07:37;;;;;;;3.75;3.35;;;;;;;33.29;20.36;101469.16;5000064;28;20031;-53
2023/06/17 09:10:08;;;;;;;4.50;3.97;;;;;;;33.36;20.55;101469.84;4999896;28;20033;-52
2023/06/17 09:12:40;;;;;;;9.35;3.70;;;;;;;33.38;21.15;101467.66;5002093;28;20040;-52
2023/06/17 09:15:14;;;;;;;7.20;3.25;;;;;;;33.60;20.95;101469.56;5002151;28;20026;-53
2023/06/17 09:17:43;;;;;;;5.18;3.15;;;;;;;33.83;20.31;101468.50;4994366;28;20435;-51
2023/06/17 09:20:11;;;;;;;6.50;3.13;;;;;;;33.75;20.22;101467.03;5002969;28;20030;-49
2023/06/17 09:22:46;;;;;;;4.45;2.90;;;;;;;34.14;20.65;101466.03;5000251;28;20456;-48
2023/06/17 09:25:14;;;;;;;5.18;3.38;;;;;;;33.96;20.75;101470.00;5004669;28;20125;-49
2023/06/17 09:27:50;;;;;;;6.43;3.45;;;;;;;34.39;20.03;101470.97;5000745;28;20061;-49
2023/06/17 09:30:15;;;;;;;5.88;2.92;;;;;;;34.34;20.49;101463.53;4998944;28;20100;-47
2023/06/17 09:32:42;;;;;;;4.80;3.30;;;;;;;34.29;19.94;101471.72;4999112;28;20030;-48
2023/06/17 09:35:14;;;;;;;4.50;3.38;;;;;;;34.32;19.00;101467.63;5004809;28;20030;-49
2023/06/17 09:37:46;;;;;;;4.47;3.05;;;;;;;34.56;19.41;101471.69;5001743;28;20045;-49
2023/06/17 09:40:12;;;;;;;6.60;3.20;;;;;;;34.57;19.70;101473.34;5005284;28;20037;-50
2023/06/17 09:42:38;;;;;;;7.47;3.03;;;;;;;34.55;19.60;101466.44;5006322;28;20092;-51
2023/06/17 09:45:11;;;;;;;5.05;3.20;;;;;;;34.85;19.89;101465.84;5004278;28;20475;-49
2023/06/17 09:47:39;;;;;;;3.95;3.20;;;;;;;35.16;19.53;101463.28;5004603;28;20483;-49
2023/06/17 09:50:11;;;;;;;6.78;3.25;;;;;;;35.33;18.46;101454.81;5004632;28;20034;-49
2023/06/17 09:52:38;;;;;;;5.65;3.30;;;;;;;35.50;18.62;101457.38;5002906;28;20160;-48
2023/06/17 09:55:04;;;;;;;5.57;3.17;;;;;;;35.42;18.87;101464.25;5003386;28;20498;-49
2023/06/17 09:57:31;;;;;;;9.30;3.40;;;;;;;35.29;20.24;101459.22;4998282;28;20030;-49
2023/06/17 10:00:00;;;;;;;6.63;3.38;;;;;;;35.53;19.61;101457.66;5006499;28;20058;-50
2023/06/17 10:02:25;;;;;;;7.82;3.92;;;;;;;35.44;18.68;101459.31;5005408;28;20019;-49
2023/06/17 10:04:52;;;;;;;4.63;3.20;;;;;;;35.80;19.64;101453.91;5003777;28;20082;-49
2023/06/17 10:07:18;;;;;;;3.75;3.05;;;;;;;36.21;18.49;101453.97;5006613;28;20033;-49
2023/06/17 10:09:43;;;;;;;4.78;3.20;;;;;;;36.06;18.09;101448.44;5000099;28;20038;-49
2023/06/17 10:12:10;;;;;;;6.07;3.63;;;;;;;35.93;18.52;101445.06;5000877;28;20049;-48
2023/06/17 10:14:36;;;;;;;4.55;2.88;;;;;;;36.12;18.54;101441.78;4998879;28;20324;-50
2023/06/17 10:17:05;;;;;;;4.28;3.15;;;;;;;36.16;17.85;101436.53;5000934;28;20069;-50
2023/06/17 10:19:33;;;;;;;3.60;3.03;;;;;;;35.93;18.17;101438.72;4993195;28;20092;-51
2023/06/17 10:22:00;;;;;;;5.07;3.00;;;;;;;36.14;18.21;101434.06;5002826;28;20030;-50
2023/06/17 10:24:26;;;;;;;3.88;3.20;;;;;;;36.49;18.49;101436.00;5000242;28;20085;-48
2023/06/17 10:26:52;;;;;;;4.75;3.30;;;;;;;36.26;17.90;101436.56;5019087;28;20061;-49
2023/06/17 10:29:17;;;;;;;5.15;3.05;;;;;;;36.31;18.57;101431.03;5003389;28;20109;-49
2023/06/17 10:31:43;;;;;;;3.97;3.10;;;;;;;37.03;18.08;101431.75;5003681;28;20050;-49
2023/06/17 10:34:14;;;;;;;3.97;3.22;;;;;;;36.93;17.20;101430.97;5004343;28;20468;-49
2023/06/17 10:36:39;;;;;;;4.22;2.90;;;;;;;36.96;17.00;101424.88;5005361;28;20038;-49
2023/06/17 10:39:10;;;;;;;3.17;2.85;;;;;;;36.75;17.12;101438.75;5003808;28;20036;-48
2023/06/17 10:41:38;;;;;;;4.55;3.05;;;;;;;36.98;17.01;101430.97;4999135;28;20499;-49
2023/06/17 10:44:28;;;;;;;10.45;3.67;;;;;;;36.88;18.40;101429.03;5004909;28;20018;-48
2023/06/17 10:46:56;;;;;;;5.72;3.28;;;;;;;36.73;17.47;101423.56;4999721;28;20395;-49
2023/06/17 10:49:22;;;;;;;7.05;2.83;;;;;;;36.80;17.14;101418.53;5003210;28;20100;-51
2023/06/17 10:51:48;;;;;;;6.70;2.85;;;;;;;36.70;17.21;101424.06;5005099;28;20445;-49
2023/06/17 10:54:14;;;;;;;3.28;2.72;;;;;;;36.65;16.83;101422.97;5003474;28;20029;-48
2023/06/17 10:56:52;;;;;;;4.03;2.80;;;;;;;37.09;18.21;101412.34;5005725;28;20108;-49
2023/06/17 10:59:28;;;;;;;6.25;2.90;;;;;;;37.07;17.86;101420.13;4996174;28;20137;-50
2023/06/17 11:02:07;;;;;;;3.00;2.67;;;;;;;37.24;17.54;101415.09;5005875;28;20026;-50
2023/06/17 11:04:35;;;;;;;4.32;2.92;;;;;;;36.93;17.88;101406.06;5001722;28;20057;-49
2023/06/17 11:07:02;;;;;;;3.40;3.10;;;;;;;37.04;17.82;101407.69;5001193;28;20113;-49
2023/06/17 11:09:29;;;;;;;3.70;2.60;;;;;;;37.08;17.26;101405.16;5002216;28;20027;-50
2023/06/17 11:11:56;;;;;;;2.92;2.72;;;;;;;36.80;18.10;101393.63;5005434;28;20029;-48
2023/06/17 11:14:22;;;;;;;4.47;2.67;;;;;;;36.83;18.68;101402.19;5001105;28;20028;-49
2023/06/17 11:16:49;;;;;;;3.33;2.92;;;;;;;36.78;17.15;101398.63;5002819;28;20398;-48